sensor_id;sensor_type;location;lat;lon;timestamp;temperature;humidity
2387;DHT22;49473;50.772;8.768;2023-04-01T00:00:50;9.10;99.90
2387;DHT22;49473;50.772;8.768;2023-04-01T00:03:17;9.10;99.90
2387;DHT22;49473;50.772;8.768;2023-04-01T00:05:44;9.10;99.90
2387;DHT22;49473;50.772;8.768;2023-04-01T00:08:13;9.10;99.90
2387;DHT22;49473;50.772;8.768;2023-04-01T00:10:39;9.10;99.90
2387;DHT22;49473;50.772;8.768;2023-04-01T00:13:06;9.10;99.90
2387;DHT22;49473;50.772;8.768;2023-04-01T00:15:33;9.10;99.90
2387;DHT22;49473;50.772;8.768;2023-04-01T00:18:00;9.10;99.90
2387;DHT22;49473;50.772;8.768;2023-04-01T00:20:27;9.10;99.90
2387;DHT22;49473;50.772;8.768;2023-04-01T00:22:54;9.00;99.90
2387;DHT22;49473;50.772;8.768;2023-04-01T00:25:23;9.10;99.90
2387;DHT22;49473;50.772;8.768;2023-04-01T00:27:50;9.10;99.90
2387;DHT22;49473;50.772;8.768;2023-04-01T00:30:17;9.10;99.90
2387;DHT22;49473;50.772;8.768;2023-04-01T00:32:44;9.00;99.90
2387;DHT22;49473;50.772;8.768;2023-04-01T00:35:11;9.00;99.90
2387;DHT22;49473;50.772;8.768;2023-04-01T00:37:38;9.00;99.90
2387;DHT22;49473;50.772;8.768;2023-04-01T00:40:07;9.00;99.90
2387;DHT22;49473;50.772;8.768;2023-04-01T00:42:35;9.00;99.90
2387;DHT22;49473;50.772;8.768;2023-04-01T00:45:25;9.10;99.90
2387;DHT22;49473;50.772;8.768;2023-04-01T00:47:52;9.00;99.90
2387;DHT22;49473;50.772;8.768;2023-04-01T00:50:19;9.00;99.90
2387;DHT22;49473;50.772;8.768;2023-04-01T00:52:46;9.00;99.90
2387;DHT22;49473;50.772;8.768;2023-04-01T00:55:13;9.00;99.90
2387;DHT22;49473;50.772;8.768;2023-04-01T00:57:43;9.00;99.90
2387;DHT22;49473;50.772;8.768;2023-04-01T01:00:13;9.10;99.90
2387;DHT22;49473;50.772;8.768;2023-04-01T01:02:43;9.00;99.90
2387;DHT22;49473;50.772;8.768;2023-04-01T01:05:12;9.00;99.90
2387;DHT22;49473;50.772;8.768;2023-04-01T01:07:43;9.00;99.90
2387;DHT22;49473;50.772;8.768;2023-04-01T01:10:15;9.00;99.90
2387;DHT22;49473;50.772;8.768;2023-04-01T01:12:51;9.10;99.90
2387;DHT22;49473;50.772;8.768;2023-04-01T01:15:25;9.10;99.90
2387;DHT22;49473;50.772;8.768;2023-04-01T01:17:57;9.00;99.90
2387;DHT22;49473;50.772;8.768;2023-04-01T01:20:55;9.00;99.90
2387;DHT22;49473;50.772;8.768;2023-04-01T01:23:57;9.00;99.90
2387;DHT22;49473;50.772;8.768;2023-04-01T01:26:42;9.00;99.90
2387;DHT22;49473;50.772;8.768;2023-04-01T01:32:08;8.90;99.90
2387;DHT22;49473;50.772;8.768;2023-04-01T01:34:41;9.00;99.90
2387;DHT22;49473;50.772;8.768;2023-04-01T01:37:15;9.00;99.90
2387;DHT22;49473;50.772;8.768;2023-04-01T01:39:45;8.90;99.90
2387;DHT22;49473;50.772;8.768;2023-04-01T01:42:15;9.00;99.90
2387;DHT22;49473;50.772;8.768;2023-04-01T01:44:44;8.90;99.90
2387;DHT22;49473;50.772;8.768;2023-04-01T01:47:13;9.00;99.90
2387;DHT22;49473;50.772;8.768;2023-04-01T01:49:42;8.90;99.90
2387;DHT22;49473;50.772;8.768;2023-04-01T01:52:10;8.90;99.90
2387;DHT22;49473;50.772;8.768;2023-04-01T01:54:47;8.90;99.90
2387;DHT22;49473;50.772;8.768;2023-04-01T01:57:15;8.90;99.90
2387;DHT22;49473;50.772;8.768;2023-04-01T01:59:43;8.90;99.90
2387;DHT22;49473;50.772;8.768;2023-04-01T02:02:13;8.90;99.90
2387;DHT22;49473;50.772;8.768;2023-04-01T02:04:43;8.90;99.90
2387;DHT22;49473;50.772;8.768;2023-04-01T02:07:16;8.90;99.90
2387;DHT22;49473;50.772;8.768;2023-04-01T02:09:45;8.90;99.90
2387;DHT22;49473;50.772;8.768;2023-04-01T02:12:14;8.90;99.90
2387;DHT22;49473;50.772;8.768;2023-04-01T02:14:45;8.90;99.90
2387;DHT22;49473;50.772;8.768;2023-04-01T02:17:16;8.90;99.90
2387;DHT22;49473;50.772;8.768;2023-04-01T02:19:47;8.80;99.90
2387;DHT22;49473;50.772;8.768;2023-04-01T02:22:18;8.90;99.90
2387;DHT22;49473;50.772;8.768;2023-04-01T02:24:49;8.90;99.90
2387;DHT22;49473;50.772;8.768;2023-04-01T02:27:17;8.90;99.90
2387;DHT22;49473;50.772;8.768;2023-04-01T02:29:44;8.90;99.90
2387;DHT22;49473;50.772;8.768;2023-04-01T02:32:10;8.80;99.90
2387;DHT22;49473;50.772;8.768;2023-04-01T02:34:39;8.80;99.90
2387;DHT22;49473;50.772;8.768;2023-04-01T02:37:07;8.80;99.90
2387;DHT22;49473;50.772;8.768;2023-04-01T02:39:34;8.80;99.90
2387;DHT22;49473;50.772;8.768;2023-04-01T02:42:02;8.80;99.90
2387;DHT22;49473;50.772;8.768;2023-04-01T02:44:29;8.80;99.90
2387;DHT22;49473;50.772;8.768;2023-04-01T02:46:55;8.80;99.90
2387;DHT22;49473;50.772;8.768;2023-04-01T02:49:22;8.80;99.90
2387;DHT22;49473;50.772;8.768;2023-04-01T02:51:49;8.80;99.90
2387;DHT22;49473;50.772;8.768;2023-04-01T02:54:17;8.80;99.90
2387;DHT22;49473;50.772;8.768;2023-04-01T02:56:44;8.80;99.90
2387;DHT22;49473;50.772;8.768;2023-04-01T02:59:12;8.80;99.90
2387;DHT22;49473;50.772;8.768;2023-04-01T03:01:39;8.80;99.90
2387;DHT22;49473;50.772;8.768;2023-04-01T03:04:05;8.80;99.90
2387;DHT22;49473;50.772;8.768;2023-04-01T03:06:32;8.80;99.90
2387;DHT22;49473;50.772;8.768;2023-04-01T03:08:59;8.80;99.90
2387;DHT22;49473;50.772;8.768;2023-04-01T03:11:26;8.80;99.90
2387;DHT22;49473;50.772;8.768;2023-04-01T03:13:52;8.80;99.90
2387;DHT22;49473;50.772;8.768;2023-04-01T03:16:20;8.80;99.90
2387;DHT22;49473;50.772;8.768;2023-04-01T03:18:47;8.70;99.90
2387;DHT22;49473;50.772;8.768;2023-04-01T03:21:17;8.70;99.90
2387;DHT22;49473;50.772;8.768;2023-04-01T03:23:44;8.70;99.90
2387;DHT22;49473;50.772;8.768;2023-04-01T03:26:11;8.70;99.90
2387;DHT22;49473;50.772;8.768;2023-04-01T03:28:39;8.70;99.90
2387;DHT22;49473;50.772;8.768;2023-04-01T03:31:05;8.70;99.90
2387;DHT22;49473;50.772;8.768;2023-04-01T03:33:34;8.70;99.90
2387;DHT22;49473;50.772;8.768;2023-04-01T03:36:00;8.70;99.90
2387;DHT22;49473;50.772;8.768;2023-04-01T03:38:28;8.60;99.90
2387;DHT22;49473;50.772;8.768;2023-04-01T03:40:55;8.70;99.90
2387;DHT22;49473;50.772;8.768;2023-04-01T03:43:22;8.70;99.90
2387;DHT22;49473;50.772;8.768;2023-04-01T03:45:51;8.70;99.90
2387;DHT22;49473;50.772;8.768;2023-04-01T03:48:18;8.70;99.90
2387;DHT22;49473;50.772;8.768;2023-04-01T03:50:46;8.70;99.90
2387;DHT22;49473;50.772;8.768;2023-04-01T03:53:13;8.70;99.90
2387;DHT22;49473;50.772;8.768;2023-04-01T03:55:40;8.70;99.90
2387;DHT22;49473;50.772;8.768;2023-04-01T03:58:08;8.70;99.90
2387;DHT22;49473;50.772;8.768;2023-04-01T04:00:35;8.60;99.90
2387;DHT22;49473;50.772;8.768;2023-04-01T04:03:02;8.60;99.90
2387;DHT22;49473;50.772;8.768;2023-04-01T04:05:29;8.60;99.90
2387;DHT22;49473;50.772;8.768;2023-04-01T04:07:57;8.60;99.90
2387;DHT22;49473;50.772;8.768;2023-04-01T04:10:24;8.60;99.90
2387;DHT22;49473;50.772;8.768;2023-04-01T04:12:52;8.60;99.90
2387;DHT22;49473;50.772;8.768;2023-04-01T04:15:18;8.60;99.90
2387;DHT22;49473;50.772;8.768;2023-04-01T04:17:45;8.60;99.90
2387;DHT22;49473;50.772;8.768;2023-04-01T04:20:12;8.60;99.90
2387;DHT22;49473;50.772;8.768;2023-04-01T04:22:39;8.60;99.90
2387;DHT22;49473;50.772;8.768;2023-04-01T04:25:08;8.60;99.90
2387;DHT22;49473;50.772;8.768;2023-04-01T04:27:35;8.70;99.90
2387;DHT22;49473;50.772;8.768;2023-04-01T04:30:02;8.70;99.90
2387;DHT22;49473;50.772;8.768;2023-04-01T04:32:30;8.60;99.90
2387;DHT22;49473;50.772;8.768;2023-04-01T04:34:56;8.60;99.90
2387;DHT22;49473;50.772;8.768;2023-04-01T04:37:23;8.60;99.90
2387;DHT22;49473;50.772;8.768;2023-04-01T04:39:51;8.60;99.90
2387;DHT22;49473;50.772;8.768;2023-04-01T04:42:19;8.60;99.90
2387;DHT22;49473;50.772;8.768;2023-04-01T04:44:46;8.50;99.90
2387;DHT22;49473;50.772;8.768;2023-04-01T04:47:13;8.50;99.90
2387;DHT22;49473;50.772;8.768;2023-04-01T04:49:39;8.50;99.90
2387;DHT22;49473;50.772;8.768;2023-04-01T04:52:06;8.50;99.90
2387;DHT22;49473;50.772;8.768;2023-04-01T04:54:33;8.50;99.90
2387;DHT22;49473;50.772;8.768;2023-04-01T04:57:00;8.50;99.90
2387;DHT22;49473;50.772;8.768;2023-04-01T04:59:28;8.50;99.90
2387;DHT22;49473;50.772;8.768;2023-04-01T05:01:54;8.60;99.90
2387;DHT22;49473;50.772;8.768;2023-04-01T05:04:21;8.50;99.90
2387;DHT22;49473;50.772;8.768;2023-04-01T05:06:48;8.60;99.90
2387;DHT22;49473;50.772;8.768;2023-04-01T05:09:15;8.50;99.90
2387;DHT22;49473;50.772;8.768;2023-04-01T05:11:42;8.60;99.90
2387;DHT22;49473;50.772;8.768;2023-04-01T05:14:12;8.50;99.90
2387;DHT22;49473;50.772;8.768;2023-04-01T05:16:40;8.50;99.90
2387;DHT22;49473;50.772;8.768;2023-04-01T05:19:07;8.50;99.90
2387;DHT22;49473;50.772;8.768;2023-04-01T05:21:34;8.50;99.90
2387;DHT22;49473;50.772;8.768;2023-04-01T05:24:01;8.50;99.90
2387;DHT22;49473;50.772;8.768;2023-04-01T05:26:27;8.40;99.90
2387;DHT22;49473;50.772;8.768;2023-04-01T05:28:54;8.50;99.90
2387;DHT22;49473;50.772;8.768;2023-04-01T05:31:21;8.50;99.90
2387;DHT22;49473;50.772;8.768;2023-04-01T05:33:50;8.50;99.90
2387;DHT22;49473;50.772;8.768;2023-04-01T05:36:17;8.40;99.90
2387;DHT22;49473;50.772;8.768;2023-04-01T05:38:44;8.40;99.90
2387;DHT22;49473;50.772;8.768;2023-04-01T05:41:12;8.50;99.90
2387;DHT22;49473;50.772;8.768;2023-04-01T05:43:40;8.50;99.90
2387;DHT22;49473;50.772;8.768;2023-04-01T05:46:07;8.40;99.90
2387;DHT22;49473;50.772;8.768;2023-04-01T05:48:35;8.50;99.90
2387;DHT22;49473;50.772;8.768;2023-04-01T05:51:03;8.50;99.90
2387;DHT22;49473;50.772;8.768;2023-04-01T05:53:30;8.40;99.90
2387;DHT22;49473;50.772;8.768;2023-04-01T05:56:02;8.50;99.90
2387;DHT22;49473;50.772;8.768;2023-04-01T05:58:29;8.50;99.90
2387;DHT22;49473;50.772;8.768;2023-04-01T06:01:01;8.50;99.90
2387;DHT22;49473;50.772;8.768;2023-04-01T06:03:28;8.50;99.90
2387;DHT22;49473;50.772;8.768;2023-04-01T06:05:55;8.40;99.90
2387;DHT22;49473;50.772;8.768;2023-04-01T06:08:24;8.50;99.90
2387;DHT22;49473;50.772;8.768;2023-04-01T06:11:02;8.50;99.90
2387;DHT22;49473;50.772;8.768;2023-04-01T06:13:47;8.50;99.90
2387;DHT22;49473;50.772;8.768;2023-04-01T06:16:25;8.60;99.90
2387;DHT22;49473;50.772;8.768;2023-04-01T06:19:04;8.60;99.90
2387;DHT22;49473;50.772;8.768;2023-04-01T06:25:04;8.60;99.90
2387;DHT22;49473;50.772;8.768;2023-04-01T06:27:50;8.70;99.90
2387;DHT22;49473;50.772;8.768;2023-04-01T06:30:34;8.70;99.90
2387;DHT22;49473;50.772;8.768;2023-04-01T06:33:20;8.80;99.90
2387;DHT22;49473;50.772;8.768;2023-04-01T06:36:15;8.90;99.90
2387;DHT22;49473;50.772;8.768;2023-04-01T06:39:01;9.00;99.90
2387;DHT22;49473;50.772;8.768;2023-04-01T06:41:44;9.00;99.90
2387;DHT22;49473;50.772;8.768;2023-04-01T06:44:22;9.00;99.90
2387;DHT22;49473;50.772;8.768;2023-04-01T06:46:58;9.00;99.90
2387;DHT22;49473;50.772;8.768;2023-04-01T06:49:34;9.10;99.90
2387;DHT22;49473;50.772;8.768;2023-04-01T06:52:09;9.10;99.90
2387;DHT22;49473;50.772;8.768;2023-04-01T06:54:40;9.30;99.90
2387;DHT22;49473;50.772;8.768;2023-04-01T06:57:20;9.50;99.90
2387;DHT22;49473;50.772;8.768;2023-04-01T06:59:49;9.70;99.90
2387;DHT22;49473;50.772;8.768;2023-04-01T07:02:22;9.70;99.90
2387;DHT22;49473;50.772;8.768;2023-04-01T07:04:53;9.70;99.90
2387;DHT22;49473;50.772;8.768;2023-04-01T07:07:29;9.70;99.90
2387;DHT22;49473;50.772;8.768;2023-04-01T07:09:59;9.70;99.90
2387;DHT22;49473;50.772;8.768;2023-04-01T07:12:37;9.70;99.90
2387;DHT22;49473;50.772;8.768;2023-04-01T07:15:15;9.70;99.90
2387;DHT22;49473;50.772;8.768;2023-04-01T07:17:44;9.70;99.90
2387;DHT22;49473;50.772;8.768;2023-04-01T07:20:17;9.80;99.90
2387;DHT22;49473;50.772;8.768;2023-04-01T07:22:48;10.00;99.90
2387;DHT22;49473;50.772;8.768;2023-04-01T07:25:17;10.10;99.90
2387;DHT22;49473;50.772;8.768;2023-04-01T07:27:46;10.00;99.90
2387;DHT22;49473;50.772;8.768;2023-04-01T07:30:15;10.00;99.90
2387;DHT22;49473;50.772;8.768;2023-04-01T07:32:47;10.00;99.90
2387;DHT22;49473;50.772;8.768;2023-04-01T07:35:22;10.20;99.90
2387;DHT22;49473;50.772;8.768;2023-04-01T07:38:03;10.40;99.90
2387;DHT22;49473;50.772;8.768;2023-04-01T07:40:39;10.50;99.90
2387;DHT22;49473;50.772;8.768;2023-04-01T07:43:29;10.60;99.90
2387;DHT22;49473;50.772;8.768;2023-04-01T07:46:06;10.60;99.90
2387;DHT22;49473;50.772;8.768;2023-04-01T07:48:43;10.70;99.90
2387;DHT22;49473;50.772;8.768;2023-04-01T07:51:15;10.80;99.90
2387;DHT22;49473;50.772;8.768;2023-04-01T07:53:48;10.80;99.90
2387;DHT22;49473;50.772;8.768;2023-04-01T07:56:19;10.60;99.90
2387;DHT22;49473;50.772;8.768;2023-04-01T07:58:59;10.60;99.90
2387;DHT22;49473;50.772;8.768;2023-04-01T08:01:30;10.40;99.90
2387;DHT22;49473;50.772;8.768;2023-04-01T08:04:13;10.40;99.90
2387;DHT22;49473;50.772;8.768;2023-04-01T08:06:45;10.40;99.90
2387;DHT22;49473;50.772;8.768;2023-04-01T08:09:20;10.40;99.90
2387;DHT22;49473;50.772;8.768;2023-04-01T08:12:02;10.50;99.90
2387;DHT22;49473;50.772;8.768;2023-04-01T08:14:37;10.60;99.90
2387;DHT22;49473;50.772;8.768;2023-04-01T08:17:13;10.60;99.90
2387;DHT22;49473;50.772;8.768;2023-04-01T08:19:58;10.60;99.90
2387;DHT22;49473;50.772;8.768;2023-04-01T08:22:32;10.60;99.90
2387;DHT22;49473;50.772;8.768;2023-04-01T08:25:04;10.50;99.90
2387;DHT22;49473;50.772;8.768;2023-04-01T08:27:36;10.40;99.90
2387;DHT22;49473;50.772;8.768;2023-04-01T08:30:16;10.30;99.90
2387;DHT22;49473;50.772;8.768;2023-04-01T08:32:48;10.40;99.90
2387;DHT22;49473;50.772;8.768;2023-04-01T08:35:20;10.40;99.90
2387;DHT22;49473;50.772;8.768;2023-04-01T08:37:51;10.40;99.90
2387;DHT22;49473;50.772;8.768;2023-04-01T08:40:42;10.50;99.90
2387;DHT22;49473;50.772;8.768;2023-04-01T08:43:24;10.50;99.90
2387;DHT22;49473;50.772;8.768;2023-04-01T08:46:10;10.50;99.90
2387;DHT22;49473;50.772;8.768;2023-04-01T08:49:06;10.40;99.90
2387;DHT22;49473;50.772;8.768;2023-04-01T08:52:01;10.40;99.90
2387;DHT22;49473;50.772;8.768;2023-04-01T08:54:46;10.40;99.90
2387;DHT22;49473;50.772;8.768;2023-04-01T08:57:21;10.50;99.90
2387;DHT22;49473;50.772;8.768;2023-04-01T09:00:03;10.60;99.90
2387;DHT22;49473;50.772;8.768;2023-04-01T09:02:50;10.70;99.90
2387;DHT22;49473;50.772;8.768;2023-04-01T09:05:36;10.80;99.90
2387;DHT22;49473;50.772;8.768;2023-04-01T09:08:24;10.90;99.90
2387;DHT22;49473;50.772;8.768;2023-04-01T09:11:07;11.20;99.90
2387;DHT22;49473;50.772;8.768;2023-04-01T09:13:51;11.50;99.90
2387;DHT22;49473;50.772;8.768;2023-04-01T09:16:27;11.60;99.90
2387;DHT22;49473;50.772;8.768;2023-04-01T09:19:17;11.60;99.90
2387;DHT22;49473;50.772;8.768;2023-04-01T09:27:43;11.50;99.90
2387;DHT22;49473;50.772;8.768;2023-04-01T09:34:00;11.40;99.90
2387;DHT22;49473;50.772;8.768;2023-04-01T09:36:45;11.30;99.90
2387;DHT22;49473;50.772;8.768;2023-04-01T09:39:34;11.20;99.90
2387;DHT22;49473;50.772;8.768;2023-04-01T09:42:25;11.30;99.90
2387;DHT22;49473;50.772;8.768;2023-04-01T09:44:58;11.50;99.90
2387;DHT22;49473;50.772;8.768;2023-04-01T09:47:42;11.50;99.90
2387;DHT22;49473;50.772;8.768;2023-04-01T09:50:37;11.50;99.90
2387;DHT22;49473;50.772;8.768;2023-04-01T09:53:16;11.60;99.90
2387;DHT22;49473;50.772;8.768;2023-04-01T09:59:01;11.70;99.90
2387;DHT22;49473;50.772;8.768;2023-04-01T10:01:42;11.80;99.90
2387;DHT22;49473;50.772;8.768;2023-04-01T10:04:30;11.80;99.90
2387;DHT22;49473;50.772;8.768;2023-04-01T10:13:33;12.00;99.90
2387;DHT22;49473;50.772;8.768;2023-04-01T10:19:52;12.50;99.90
2387;DHT22;49473;50.772;8.768;2023-04-01T10:22:58;12.60;99.90
2387;DHT22;49473;50.772;8.768;2023-04-01T10:25:55;12.60;99.90
2387;DHT22;49473;50.772;8.768;2023-04-01T10:28:43;12.40;99.90
2387;DHT22;49473;50.772;8.768;2023-04-01T10:34:32;12.40;99.90
2387;DHT22;49473;50.772;8.768;2023-04-01T10:37:12;12.10;99.90
2387;DHT22;49473;50.772;8.768;2023-04-01T10:40:06;12.00;99.90
2387;DHT22;49473;50.772;8.768;2023-04-01T10:43:04;12.10;99.90
2387;DHT22;49473;50.772;8.768;2023-04-01T10:49:04;12.30;99.90
2387;DHT22;49473;50.772;8.768;2023-04-01T10:52:01;12.30;99.90
2387;DHT22;49473;50.772;8.768;2023-04-01T10:54:45;12.30;99.90
2387;DHT22;49473;50.772;8.768;2023-04-01T10:57:47;12.30;99.90
2387;DHT22;49473;50.772;8.768;2023-04-01T11:00:45;12.30;99.90
2387;DHT22;49473;50.772;8.768;2023-04-01T11:06:45;12.40;99.90
2387;DHT22;49473;50.772;8.768;2023-04-01T11:12:43;12.30;99.90
2387;DHT22;49473;50.772;8.768;2023-04-01T11:21:50;12.30;99.90
2387;DHT22;49473;50.772;8.768;2023-04-01T11:24:36;12.50;99.90
2387;DHT22;49473;50.772;8.768;2023-04-01T11:27:23;12.40;99.90
2387;DHT22;49473;50.772;8.768;2023-04-01T11:30:18;12.30;99.90
2387;DHT22;49473;50.772;8.768;2023-04-01T11:32:59;12.20;99.90
2387;DHT22;49473;50.772;8.768;2023-04-01T11:35:55;12.20;99.90
2387;DHT22;49473;50.772;8.768;2023-04-01T11:38:40;12.10;99.90
2387;DHT22;49473;50.772;8.768;2023-04-01T11:41:19;12.00;99.90
2387;DHT22;49473;50.772;8.768;2023-04-01T11:43:56;11.80;99.90
2387;DHT22;49473;50.772;8.768;2023-04-01T11:46:36;11.80;99.90
2387;DHT22;49473;50.772;8.768;2023-04-01T11:49:18;11.70;99.90
2387;DHT22;49473;50.772;8.768;2023-04-01T11:52:02;11.80;99.90
2387;DHT22;49473;50.772;8.768;2023-04-01T11:54:44;11.70;99.90
2387;DHT22;49473;50.772;8.768;2023-04-01T11:57:35;11.80;99.90
2387;DHT22;49473;50.772;8.768;2023-04-01T12:03:30;11.90;99.90
2387;DHT22;49473;50.772;8.768;2023-04-01T12:06:05;11.90;99.90
2387;DHT22;49473;50.772;8.768;2023-04-01T12:08:41;11.90;99.90
2387;DHT22;49473;50.772;8.768;2023-04-01T12:11:17;12.00;99.90
2387;DHT22;49473;50.772;8.768;2023-04-01T12:13:53;12.10;99.90
2387;DHT22;49473;50.772;8.768;2023-04-01T12:16:35;12.20;99.90
2387;DHT22;49473;50.772;8.768;2023-04-01T12:19:15;12.20;99.90
2387;DHT22;49473;50.772;8.768;2023-04-01T12:21:52;12.30;99.90
2387;DHT22;49473;50.772;8.768;2023-04-01T12:24:46;12.40;99.90
2387;DHT22;49473;50.772;8.768;2023-04-01T12:27:23;12.40;99.90
2387;DHT22;49473;50.772;8.768;2023-04-01T12:30:09;12.40;99.90
2387;DHT22;49473;50.772;8.768;2023-04-01T12:32:44;12.50;99.90
2387;DHT22;49473;50.772;8.768;2023-04-01T12:35:19;12.80;99.90
2387;DHT22;49473;50.772;8.768;2023-04-01T12:37:56;13.00;99.90
2387;DHT22;49473;50.772;8.768;2023-04-01T12:40:31;13.30;99.90
2387;DHT22;49473;50.772;8.768;2023-04-01T12:43:34;13.70;99.90
2387;DHT22;49473;50.772;8.768;2023-04-01T12:46:14;13.90;99.90
2387;DHT22;49473;50.772;8.768;2023-04-01T12:49:04;14.20;99.90
2387;DHT22;49473;50.772;8.768;2023-04-01T12:51:49;14.10;99.90
2387;DHT22;49473;50.772;8.768;2023-04-01T12:54:52;14.10;99.90
2387;DHT22;49473;50.772;8.768;2023-04-01T12:57:50;14.10;99.90
2387;DHT22;49473;50.772;8.768;2023-04-01T13:00:39;14.20;99.90
2387;DHT22;49473;50.772;8.768;2023-04-01T13:06:20;13.90;99.90
2387;DHT22;49473;50.772;8.768;2023-04-01T13:08:56;13.70;99.90
2387;DHT22;49473;50.772;8.768;2023-04-01T13:11:34;13.70;99.90
2387;DHT22;49473;50.772;8.768;2023-04-01T13:14:24;13.70;99.90
2387;DHT22;49473;50.772;8.768;2023-04-01T13:16:59;13.60;99.90
2387;DHT22;49473;50.772;8.768;2023-04-01T13:19:34;13.40;99.90
2387;DHT22;49473;50.772;8.768;2023-04-01T13:22:09;13.30;99.90
2387;DHT22;49473;50.772;8.768;2023-04-01T13:24:44;13.10;99.90
2387;DHT22;49473;50.772;8.768;2023-04-01T13:27:17;13.00;99.90
2387;DHT22;49473;50.772;8.768;2023-04-01T13:30:02;12.70;99.90
2387;DHT22;49473;50.772;8.768;2023-04-01T13:32:37;12.70;99.90
2387;DHT22;49473;50.772;8.768;2023-04-01T13:35:17;12.80;99.90
2387;DHT22;49473;50.772;8.768;2023-04-01T13:37:54;12.70;99.90
2387;DHT22;49473;50.772;8.768;2023-04-01T13:40:41;12.70;99.90
2387;DHT22;49473;50.772;8.768;2023-04-01T13:43:15;12.70;99.90
2387;DHT22;49473;50.772;8.768;2023-04-01T13:46:10;12.60;99.90
2387;DHT22;49473;50.772;8.768;2023-04-01T13:49:07;12.80;99.90
2387;DHT22;49473;50.772;8.768;2023-04-01T13:51:56;12.80;99.90
2387;DHT22;49473;50.772;8.768;2023-04-01T13:54:35;12.70;99.90
2387;DHT22;49473;50.772;8.768;2023-04-01T13:57:22;12.60;99.90
2387;DHT22;49473;50.772;8.768;2023-04-01T13:59:59;12.60;99.90
2387;DHT22;49473;50.772;8.768;2023-04-01T14:05:47;12.50;99.90
2387;DHT22;49473;50.772;8.768;2023-04-01T14:08:39;12.50;99.90
2387;DHT22;49473;50.772;8.768;2023-04-01T14:11:15;12.50;99.90
2387;DHT22;49473;50.772;8.768;2023-04-01T14:13:51;12.70;99.90
2387;DHT22;49473;50.772;8.768;2023-04-01T14:16:40;12.80;99.90
2387;DHT22;49473;50.772;8.768;2023-04-01T14:19:22;12.80;99.90
2387;DHT22;49473;50.772;8.768;2023-04-01T14:22:00;12.80;99.90
2387;DHT22;49473;50.772;8.768;2023-04-01T14:24:41;12.90;99.90
2387;DHT22;49473;50.772;8.768;2023-04-01T14:33:26;13.20;99.90
2387;DHT22;49473;50.772;8.768;2023-04-01T14:36:03;13.10;99.90
2387;DHT22;49473;50.772;8.768;2023-04-01T14:38:42;13.10;99.90
2387;DHT22;49473;50.772;8.768;2023-04-01T14:41:19;13.10;99.90
2387;DHT22;49473;50.772;8.768;2023-04-01T14:47:09;13.10;99.90
2387;DHT22;49473;50.772;8.768;2023-04-01T14:49:41;13.10;99.90
2387;DHT22;49473;50.772;8.768;2023-04-01T14:52:13;13.00;99.90
2387;DHT22;49473;50.772;8.768;2023-04-01T14:54:42;12.90;99.90
2387;DHT22;49473;50.772;8.768;2023-04-01T14:57:12;12.90;99.90
2387;DHT22;49473;50.772;8.768;2023-04-01T14:59:40;12.80;99.90
2387;DHT22;49473;50.772;8.768;2023-04-01T15:05:10;12.60;99.90
2387;DHT22;49473;50.772;8.768;2023-04-01T15:08:13;12.40;99.90
2387;DHT22;49473;50.772;8.768;2023-04-01T15:10:53;12.40;99.90
2387;DHT22;49473;50.772;8.768;2023-04-01T15:13:46;12.30;99.90
2387;DHT22;49473;50.772;8.768;2023-04-01T15:16:20;12.40;99.90
2387;DHT22;49473;50.772;8.768;2023-04-01T15:18:56;12.50;99.90
2387;DHT22;49473;50.772;8.768;2023-04-01T15:21:46;12.60;99.90
2387;DHT22;49473;50.772;8.768;2023-04-01T15:24:21;12.60;99.90
2387;DHT22;49473;50.772;8.768;2023-04-01T15:27:13;12.50;99.90
2387;DHT22;49473;50.772;8.768;2023-04-01T15:30:00;12.60;99.90
2387;DHT22;49473;50.772;8.768;2023-04-01T15:32:39;12.50;99.90
2387;DHT22;49473;50.772;8.768;2023-04-01T15:35:21;12.50;99.90
2387;DHT22;49473;50.772;8.768;2023-04-01T15:37:55;12.50;99.90
2387;DHT22;49473;50.772;8.768;2023-04-01T15:40:27;12.40;99.90
2387;DHT22;49473;50.772;8.768;2023-04-01T15:43:06;12.40;99.90
2387;DHT22;49473;50.772;8.768;2023-04-01T15:45:45;12.40;99.90
2387;DHT22;49473;50.772;8.768;2023-04-01T15:48:33;12.40;99.90
2387;DHT22;49473;50.772;8.768;2023-04-01T15:51:48;12.40;99.90
2387;DHT22;49473;50.772;8.768;2023-04-01T15:54:38;12.40;99.90
2387;DHT22;49473;50.772;8.768;2023-04-01T15:57:21;12.30;99.90
2387;DHT22;49473;50.772;8.768;2023-04-01T16:00:06;12.30;99.90
2387;DHT22;49473;50.772;8.768;2023-04-01T16:02:43;12.20;99.90
2387;DHT22;49473;50.772;8.768;2023-04-01T16:05:33;12.20;99.90
2387;DHT22;49473;50.772;8.768;2023-04-01T16:08:12;12.10;99.90
2387;DHT22;49473;50.772;8.768;2023-04-01T16:10:52;12.10;99.90
2387;DHT22;49473;50.772;8.768;2023-04-01T16:13:35;12.20;99.90
2387;DHT22;49473;50.772;8.768;2023-04-01T16:16:17;12.10;99.90
2387;DHT22;49473;50.772;8.768;2023-04-01T16:18:59;12.00;99.90
2387;DHT22;49473;50.772;8.768;2023-04-01T16:21:44;12.00;99.90
2387;DHT22;49473;50.772;8.768;2023-04-01T16:24:17;11.90;99.90
2387;DHT22;49473;50.772;8.768;2023-04-01T16:26:52;11.90;99.90
2387;DHT22;49473;50.772;8.768;2023-04-01T16:29:28;11.90;99.90
2387;DHT22;49473;50.772;8.768;2023-04-01T16:32:12;11.90;99.90
2387;DHT22;49473;50.772;8.768;2023-04-01T16:34:45;11.70;99.90
2387;DHT22;49473;50.772;8.768;2023-04-01T16:37:15;11.70;99.90
2387;DHT22;49473;50.772;8.768;2023-04-01T16:39:49;11.70;99.90
2387;DHT22;49473;50.772;8.768;2023-04-01T16:42:26;11.80;99.90
2387;DHT22;49473;50.772;8.768;2023-04-01T16:45:01;11.70;99.90
2387;DHT22;49473;50.772;8.768;2023-04-01T16:47:31;11.80;99.90
2387;DHT22;49473;50.772;8.768;2023-04-01T16:50:06;11.80;99.90
2387;DHT22;49473;50.772;8.768;2023-04-01T16:52:51;11.70;99.90
2387;DHT22;49473;50.772;8.768;2023-04-01T16:55:34;11.80;99.90
2387;DHT22;49473;50.772;8.768;2023-04-01T16:58:03;11.70;99.90
2387;DHT22;49473;50.772;8.768;2023-04-01T17:00:38;11.70;99.90
2387;DHT22;49473;50.772;8.768;2023-04-01T17:03:12;11.70;99.90
2387;DHT22;49473;50.772;8.768;2023-04-01T17:05:55;11.70;99.90
2387;DHT22;49473;50.772;8.768;2023-04-01T17:08:34;11.70;99.90
2387;DHT22;49473;50.772;8.768;2023-04-01T17:11:10;11.80;99.90
2387;DHT22;49473;50.772;8.768;2023-04-01T17:13:46;11.80;99.90
2387;DHT22;49473;50.772;8.768;2023-04-01T17:16:41;11.80;99.90
2387;DHT22;49473;50.772;8.768;2023-04-01T17:19:17;11.70;99.90
2387;DHT22;49473;50.772;8.768;2023-04-01T17:21:57;11.70;99.90
2387;DHT22;49473;50.772;8.768;2023-04-01T17:24:45;11.80;99.90
2387;DHT22;49473;50.772;8.768;2023-04-01T17:27:25;11.80;99.90
2387;DHT22;49473;50.772;8.768;2023-04-01T17:30:16;11.60;99.90
2387;DHT22;49473;50.772;8.768;2023-04-01T17:33:01;11.50;99.90
2387;DHT22;49473;50.772;8.768;2023-04-01T17:35:32;11.50;99.90
2387;DHT22;49473;50.772;8.768;2023-04-01T17:38:09;11.50;99.90
2387;DHT22;49473;50.772;8.768;2023-04-01T17:40:48;11.40;99.90
2387;DHT22;49473;50.772;8.768;2023-04-01T17:43:22;11.40;99.90
2387;DHT22;49473;50.772;8.768;2023-04-01T17:45:56;11.30;99.90
2387;DHT22;49473;50.772;8.768;2023-04-01T17:48:38;11.30;99.90
2387;DHT22;49473;50.772;8.768;2023-04-01T17:51:19;11.20;99.90
2387;DHT22;49473;50.772;8.768;2023-04-01T17:53:51;11.20;99.90
2387;DHT22;49473;50.772;8.768;2023-04-01T17:56:29;11.20;99.90
2387;DHT22;49473;50.772;8.768;2023-04-01T17:59:04;11.20;99.90